Time;durP1;ratioP1;P1;durP2;ratioP2;P2;SDS_P1;SDS_P2;PMS_P1;PMS_P2;Temp;Humidity;BMP_temperature;BMP_pressure;BME280_temperature;BME280_humidity;BME280_pressure;Samples;Min_cycle;Max_cycle;Signal;HPM_P1;HPM_P2
2021/12/17 00:07:03;;;;;;;;;;;23.10;27.50;;;;;;5146587;27;19923;-50
2021/12/17 00:09:29;;;;;;;;;;;23.10;27.50;;;;;;5140883;27;19927;-53
2021/12/17 00:11:55;;;;;;;;;;;23.20;27.50;;;;;;5140900;27;19934;-53
2021/12/17 00:14:27;;;;;;;;;;;23.00;27.60;;;;;;5146336;27;19927;-48
2021/12/17 00:16:56;;;;;;;;;;;23.00;27.60;;;;;;5140560;27;19923;-54
2021/12/17 00:49:00;;;;;;;;;;;22.50;28.40;;;;;;5146113;27;19926;-55
2021/12/17 00:53:57;;;;;;;;;;;22.80;28.00;;;;;;5145478;27;20422;-55
2021/12/17 00:56:23;;;;;;;;;;;22.80;27.90;;;;;;5140087;27;19938;-55
2021/12/17 00:58:48;;;;;;;;;;;22.90;27.90;;;;;;5139906;27;20368;-53
2021/12/17 01:01:15;;;;;;;;;;;22.90;27.90;;;;;;5145517;27;19976;-52
2021/12/17 01:03:40;;;;;;;;;;;23.00;27.80;;;;;;5140602;27;19995;-50
2021/12/17 01:06:06;;;;;;;;;;;23.00;27.80;;;;;;5140104;27;19927;-47
2021/12/17 01:08:32;;;;;;;;;;;23.10;27.70;;;;;;5145762;27;20464;-47
2021/12/17 01:10:58;;;;;;;;;;;23.00;27.70;;;;;;5140045;27;19968;-49
2021/12/17 01:13:24;;;;;;;;;;;23.20;27.60;;;;;;5143816;27;19931;-61
2021/12/17 01:15:50;;;;;;;;;;;23.00;27.90;;;;;;5142632;27;19931;-55
2021/12/17 01:18:18;;;;;;;;;;;22.90;27.90;;;;;;5143073;27;19976;-53
2021/12/17 01:37:09;;;;;;;;;;;23.10;27.80;;;;;;5107960;27;19927;-60
2021/12/17 01:42:27;;;;;;;;;;;23.00;27.90;;;;;;5103438;27;19932;-54
2021/12/17 01:44:53;;;;;;;;;;;23.10;27.90;;;;;;5143402;27;19947;-52
2021/12/17 01:47:19;;;;;;;;;;;23.20;27.80;;;;;;5148852;27;19923;-52
2021/12/17 02:00:19;;;;;;;;;;;23.00;27.90;;;;;;5143107;27;20373;-54
2021/12/17 02:02:50;;;;;;;;;;;23.10;27.90;;;;;;5148315;27;20438;-47
2021/12/17 02:05:16;;;;;;;;;;;23.00;27.80;;;;;;5142801;27;20014;-49
2021/12/17 02:07:44;;;;;;;;;;;23.20;27.70;;;;;;5143631;27;19930;-57
2021/12/17 02:28:42;;;;;;;;;;;22.90;28.00;;;;;;5142745;27;19923;-50
2021/12/17 02:28:56;;;;;;;;;;;23.10;27.80;;;;;;5126664;27;19974;-51
2021/12/17 02:31:31;;;;;;;;;;;23.10;27.90;;;;;;5142268;27;20308;-49
2021/12/17 02:34:02;;;;;;;;;;;23.10;27.90;;;;;;5147870;27;19930;-55
2021/12/17 02:36:31;;;;;;;;;;;23.10;27.80;;;;;;5142662;27;19927;-47
2021/12/17 02:39:07;;;;;;;;;;;23.10;27.80;;;;;;5142625;27;20072;-55
2021/12/17 02:47:04;;;;;;;;;;;22.70;28.50;;;;;;5142074;27;20347;-56
2021/12/17 02:49:30;;;;;;;;;;;22.80;28.40;;;;;;5147300;27;19927;-55
2021/12/17 02:51:56;;;;;;;;;;;22.90;28.20;;;;;;5141967;27;19923;-53
2021/12/17 02:54:22;;;;;;;;;;;22.80;28.30;;;;;;5142381;27;20362;-53
2021/12/17 02:56:48;;;;;;;;;;;22.90;28.20;;;;;;5147763;27;20385;-56
2021/12/17 02:59:14;;;;;;;;;;;23.00;28.20;;;;;;5142266;27;20336;-55
2021/12/17 03:01:42;;;;;;;;;;;22.90;28.20;;;;;;5147297;27;20034;-51
2021/12/17 03:04:07;;;;;;;;;;;23.00;28.20;;;;;;5141964;27;19923;-51
2021/12/17 03:06:33;;;;;;;;;;;23.00;28.10;;;;;;5122988;27;19927;-50
2021/12/17 03:08:59;;;;;;;;;;;23.10;28.10;;;;;;5146851;27;19924;-50
2021/12/17 03:11:25;;;;;;;;;;;23.10;28.00;;;;;;5141806;27;20286;-50
2021/12/17 03:13:52;;;;;;;;;;;23.20;27.90;;;;;;5142201;27;20150;-51
2021/12/17 03:16:33;;;;;;;;;;;23.20;27.90;;;;;;5147722;27;20010;-56
2021/12/17 03:23:25;;;;;;;;;;;22.90;28.20;;;;;;5141876;27;19923;-53
2021/12/17 03:24:44;;;;;;;;;;;22.90;28.30;;;;;;5147041;27;20340;-53
2021/12/17 03:27:10;;;;;;;;;;;23.00;28.30;;;;;;5141349;27;19938;-53
2021/12/17 03:29:36;;;;;;;;;;;23.00;28.20;;;;;;5141665;27;20369;-51
2021/12/17 03:32:02;;;;;;;;;;;23.10;28.10;;;;;;5147555;27;19930;-51
2021/12/17 03:34:28;;;;;;;;;;;23.00;28.20;;;;;;5141700;27;19930;-50
2021/12/17 03:36:54;;;;;;;;;;;23.00;28.10;;;;;;5141634;27;19923;-48
2021/12/17 03:39:26;;;;;;;;;;;23.10;28.10;;;;;;5145824;27;20284;-52
2021/12/17 03:41:52;;;;;;;;;;;23.10;28.00;;;;;;5141463;27;20352;-58
2021/12/17 03:44:18;;;;;;;;;;;23.10;28.10;;;;;;5146463;27;20018;-59
2021/12/17 03:46:46;;;;;;;;;;;23.00;28.20;;;;;;5141821;27;19923;-49
2021/12/17 03:49:11;;;;;;;;;;;23.10;28.10;;;;;;5141496;27;19926;-51
2021/12/17 03:51:47;;;;;;;;;;;23.20;28.10;;;;;;5147184;27;19923;-58
2021/12/17 03:54:13;;;;;;;;;;;22.80;28.60;;;;;;5141410;27;19975;-57
2021/12/17 03:56:39;;;;;;;;;;;22.90;28.40;;;;;;5140926;27;20758;-53
2021/12/17 03:59:10;;;;;;;;;;;22.90;28.40;;;;;;5146109;27;19926;-57
2021/12/17 04:01:37;;;;;;;;;;;22.90;28.30;;;;;;5141024;27;19931;-56
2021/12/17 04:04:02;;;;;;;;;;;22.90;28.40;;;;;;5140729;27;20247;-52
2021/12/17 04:06:28;;;;;;;;;;;23.00;28.30;;;;;;5146417;27;20286;-54
2021/12/17 04:08:55;;;;;;;;;;;23.00;28.30;;;;;;5141358;27;19934;-51
2021/12/17 04:11:21;;;;;;;;;;;23.00;28.30;;;;;;5146562;27;20006;-51
2021/12/17 04:13:54;;;;;;;;;;;23.00;28.30;;;;;;5141138;27;19933;-47
2021/12/17 04:16:23;;;;;;;;;;;23.10;28.30;;;;;;5141002;27;19929;-53
2021/12/17 04:18:49;;;;;;;;;;;23.00;28.40;;;;;;5146119;27;20299;-54
2021/12/17 04:21:15;;;;;;;;;;;23.00;28.50;;;;;;5140483;27;19930;-49
2021/12/17 04:23:41;;;;;;;;;;;23.10;28.40;;;;;;5140143;27;19930;-51
2021/12/17 04:26:07;;;;;;;;;;;23.10;28.40;;;;;;5146719;27;19927;-56
2021/12/17 04:28:36;;;;;;;;;;;22.90;28.70;;;;;;5141035;27;19975;-54
2021/12/17 04:31:01;;;;;;;;;;;23.00;28.60;;;;;;5140816;27;19923;-50
2021/12/17 04:33:27;;;;;;;;;;;23.10;28.50;;;;;;5146218;27;20015;-50
2021/12/17 04:35:53;;;;;;;;;;;23.20;28.50;;;;;;5140546;27;19923;-52
2021/12/17 04:38:21;;;;;;;;;;;23.20;28.40;;;;;;5146101;27;20271;-65
2021/12/17 04:40:49;;;;;;;;;;;23.00;28.70;;;;;;5140983;27;19934;-59
2021/12/17 04:46:16;;;;;;;;;;;22.80;29.00;;;;;;5146345;27;20457;-55
2021/12/17 04:59:40;;;;;;;;;;;23.10;28.70;;;;;;5143432;27;20386;-59
2021/12/17 05:02:06;;;;;;;;;;;23.10;28.80;;;;;;5143922;27;20235;-51
2021/12/17 05:04:32;;;;;;;;;;;23.10;28.80;;;;;;5149758;27;20466;-53
2021/12/17 05:06:57;;;;;;;;;;;23.00;28.90;;;;;;5125290;27;19927;-53
2021/12/17 05:09:38;;;;;;;;;;;23.00;28.90;;;;;;5149635;27;19975;-53
2021/12/17 05:22:57;;;;;;;;;;;23.00;29.00;;;;;;5144235;27;19945;-51
2021/12/17 05:25:26;;;;;;;;;;;23.10;28.90;;;;;;5143820;27;19934;-59
2021/12/17 05:27:53;;;;;;;;;;;23.10;28.90;;;;;;5149284;27;19946;-50
2021/12/17 05:30:18;;;;;;;;;;;23.00;29.00;;;;;;5143413;27;19931;-50
2021/12/17 05:32:44;;;;;;;;;;;23.10;28.80;;;;;;5147219;27;19930;-59
2021/12/17 05:35:10;;;;;;;;;;;22.90;29.10;;;;;;5145327;27;20362;-53
2021/12/17 05:37:36;;;;;;;;;;;23.10;29.00;;;;;;5142912;27;19927;-50
2021/12/17 05:40:02;;;;;;;;;;;23.10;28.90;;;;;;5148991;27;19931;-57
2021/12/17 05:42:27;;;;;;;;;;;23.10;28.90;;;;;;5143290;27;19927;-53
2021/12/17 05:44:58;;;;;;;;;;;23.10;29.00;;;;;;5143383;27;19946;-52
2021/12/17 05:47:24;;;;;;;;;;;23.20;28.90;;;;;;5148986;27;20390;-62
2021/12/17 05:49:50;;;;;;;;;;;23.10;28.90;;;;;;5143107;27;19980;-55
2021/12/17 05:52:15;;;;;;;;;;;22.80;29.40;;;;;;5142895;27;20290;-54
2021/12/17 05:54:41;;;;;;;;;;;23.10;29.10;;;;;;5148199;27;19934;-56
2021/12/17 05:57:07;;;;;;;;;;;22.90;29.40;;;;;;5142865;27;19930;-54
2021/12/17 05:59:35;;;;;;;;;;;23.00;29.20;;;;;;5148456;27;19967;-55
2021/12/17 06:02:03;;;;;;;;;;;23.00;29.20;;;;;;5141919;27;19923;-50
2021/12/17 06:04:29;;;;;;;;;;;23.10;29.10;;;;;;5142676;27;19937;-48
2021/12/17 06:06:55;;;;;;;;;;;23.10;29.10;;;;;;5147901;27;20318;-52
2021/12/17 06:09:21;;;;;;;;;;;22.90;29.30;;;;;;5142418;27;19924;-56
2021/12/17 06:11:46;;;;;;;;;;;23.00;29.30;;;;;;5142451;27;19931;-52
2021/12/17 06:14:12;;;;;;;;;;;23.00;29.20;;;;;;5147796;27;19946;-48
2021/12/17 06:16:38;;;;;;;;;;;23.10;29.20;;;;;;5123906;27;19931;-59
2021/12/17 06:19:04;;;;;;;;;;;23.10;29.10;;;;;;5148154;27;19934;-53
2021/12/17 06:21:30;;;;;;;;;;;23.10;29.20;;;;;;5142765;27;19927;-51
2021/12/17 06:23:55;;;;;;;;;;;23.10;29.10;;;;;;5142749;27;19927;-62
2021/12/17 06:26:21;;;;;;;;;;;23.10;29.10;;;;;;5148015;27;19927;-56
2021/12/17 06:28:50;;;;;;;;;;;22.90;29.40;;;;;;5142477;27;19972;-55
2021/12/17 06:31:19;;;;;;;;;;;23.00;29.20;;;;;;5124098;27;20180;-53
2021/12/17 06:33:45;;;;;;;;;;;23.10;29.00;;;;;;5147834;27;19924;-51
2021/12/17 06:36:11;;;;;;;;;;;23.20;29.00;;;;;;5142718;27;20397;-56
2021/12/17 06:38:36;;;;;;;;;;;23.10;29.00;;;;;;5144536;27;20343;-58
2021/12/17 06:41:02;;;;;;;;;;;23.00;29.10;;;;;;5146317;27;20036;-48
2021/12/17 06:43:36;;;;;;;;;;;23.20;28.90;;;;;;5142398;27;19984;-61
2021/12/17 06:48:48;;;;;;;;;;;23.00;29.10;;;;;;5145430;27;20465;-50
2021/12/17 06:57:45;;;;;;;;;;;23.10;29.00;;;;;;5147620;27;20380;-55
2021/12/17 06:59:55;;;;;;;;;;;23.10;29.00;;;;;;5142828;27;20412;-56
2021/12/17 07:21:23;;;;;;;;;;;23.10;28.80;;;;;;5146758;27;20013;-59
2021/12/17 07:24:25;;;;;;;;;;;23.10;28.80;;;;;;5147112;27;20010;-52
2021/12/17 07:34:49;;;;;;;;;;;23.00;28.70;;;;;;5141544;27;20396;-54
2021/12/17 07:39:41;;;;;;;;;;;23.10;28.70;;;;;;5146771;27;19990;-50
2021/12/17 07:42:07;;;;;;;;;;;23.10;28.60;;;;;;5141333;27;20422;-58
2021/12/17 07:44:32;;;;;;;;;;;23.10;28.50;;;;;;5141177;27;20369;-56
2021/12/17 07:46:58;;;;;;;;;;;23.00;28.60;;;;;;5146316;27;19922;-54
2021/12/17 07:49:24;;;;;;;;;;;23.10;28.40;;;;;;5141431;27;19934;-50
2021/12/17 07:51:50;;;;;;;;;;;23.20;28.20;;;;;;5147018;27;19927;-61
2021/12/17 07:54:16;;;;;;;;;;;23.20;28.20;;;;;;5141464;27;19923;-56
2021/12/17 07:56:41;;;;;;;;;;;23.10;28.30;;;;;;5141263;27;19988;-55
2021/12/17 07:59:08;;;;;;;;;;;23.00;28.30;;;;;;5142289;27;19923;-52
2021/12/17 08:01:35;;;;;;;;;;;23.10;28.20;;;;;;5141034;27;19966;-63
2021/12/17 08:04:01;;;;;;;;;;;23.20;28.00;;;;;;5140824;27;19929;-56
2021/12/17 08:06:27;;;;;;;;;;;22.80;28.30;;;;;;5146359;27;19948;-55
2021/12/17 08:08:53;;;;;;;;;;;22.90;28.10;;;;;;5141253;27;19923;-56
2021/12/17 08:11:19;;;;;;;;;;;23.00;27.90;;;;;;5146318;27;20378;-52
2021/12/17 08:13:46;;;;;;;;;;;23.00;27.90;;;;;;5141049;27;19936;-50
2021/12/17 08:16:28;;;;;;;;;;;23.10;27.80;;;;;;5140896;27;19939;-62
2021/12/17 08:31:59;;;;;;;;;;;22.90;27.70;;;;;;5140943;27;19927;-55
2021/12/17 08:34:25;;;;;;;;;;;23.10;27.50;;;;;;5127619;27;20579;-53
2021/12/17 08:36:51;;;;;;;;;;;23.10;27.40;;;;;;5140464;27;19931;-52
2021/12/17 08:39:17;;;;;;;;;;;23.10;27.30;;;;;;5140235;27;20376;-58
2021/12/17 08:41:42;;;;;;;;;;;23.20;27.30;;;;;;5145567;27;20323;-55
2021/12/17 08:44:08;;;;;;;;;;;23.10;27.30;;;;;;5140609;27;19923;-58
2021/12/17 08:46:34;;;;;;;;;;;23.20;27.10;;;;;;5140820;27;20261;-53
2021/12/17 08:49:00;;;;;;;;;;;23.10;27.20;;;;;;5125971;27;20286;-58
2021/12/17 08:51:26;;;;;;;;;;;23.00;27.30;;;;;;5121906;27;20479;-59
2021/12/17 08:53:52;;;;;;;;;;;23.00;27.20;;;;;;5145756;27;20183;-59
2021/12/17 08:56:20;;;;;;;;;;;23.10;27.10;;;;;;5140250;27;20009;-55
2021/12/17 08:58:46;;;;;;;;;;;23.10;27.10;;;;;;5140178;27;19958;-55
2021/12/17 09:01:12;;;;;;;;;;;23.20;27.10;;;;;;5145433;27;19933;-59
2021/12/17 09:03:38;;;;;;;;;;;23.00;27.10;;;;;;5140335;27;19923;-57
2021/12/17 09:06:03;;;;;;;;;;;23.10;27.10;;;;;;5140348;27;20191;-58
2021/12/17 09:08:29;;;;;;;;;;;23.10;27.00;;;;;;5145944;27;20512;-55
2021/12/17 09:10:55;;;;;;;;;;;22.90;27.20;;;;;;5140331;27;19943;-55
2021/12/17 09:13:25;;;;;;;;;;;23.00;27.10;;;;;;5144296;27;20342;-57
2021/12/17 09:15:54;;;;;;;;;;;23.00;27.00;;;;;;5124371;27;20392;-54
2021/12/17 09:18:20;;;;;;;;;;;23.00;27.00;;;;;;5139542;27;19951;-60
2021/12/17 09:20:46;;;;;;;;;;;22.90;27.10;;;;;;5145537;27;19933;-53
2021/12/17 09:23:12;;;;;;;;;;;23.00;27.00;;;;;;5140363;27;19934;-54
2021/12/17 09:25:37;;;;;;;;;;;23.10;26.90;;;;;;5140062;27;19927;-53
2021/12/17 09:28:04;;;;;;;;;;;23.20;26.70;;;;;;5145721;27;19935;-58
2021/12/17 09:30:30;;;;;;;;;;;23.30;26.70;;;;;;5139940;27;19950;-54
2021/12/17 09:32:55;;;;;;;;;;;23.10;26.80;;;;;;5139965;27;19969;-64
2021/12/17 09:35:22;;;;;;;;;;;23.00;27.00;;;;;;5145241;27;20368;-56
2021/12/17 09:37:48;;;;;;;;;;;23.00;27.00;;;;;;5141461;27;19927;-52
2021/12/17 09:40:14;;;;;;;;;;;23.10;26.90;;;;;;5149125;27;19966;-56
2021/12/17 09:42:42;;;;;;;;;;;23.10;26.90;;;;;;5143546;27;19927;-52
2021/12/17 09:45:08;;;;;;;;;;;23.20;26.80;;;;;;5143540;27;20420;-55
2021/12/17 09:47:34;;;;;;;;;;;23.20;26.70;;;;;;5148856;27;19927;-61
2021/12/17 09:50:00;;;;;;;;;;;23.10;26.90;;;;;;5143024;27;20431;-53
2021/12/17 09:52:26;;;;;;;;;;;23.00;26.90;;;;;;5143209;27;19962;-53
2021/12/17 09:54:52;;;;;;;;;;;23.10;26.90;;;;;;5129885;27;19923;-54
2021/12/17 09:57:19;;;;;;;;;;;23.20;26.80;;;;;;5142993;27;19980;-63
2021/12/17 09:59:45;;;;;;;;;;;23.10;26.90;;;;;;5148954;27;19935;-56
2021/12/17 10:02:11;;;;;;;;;;;23.00;26.90;;;;;;5124401;27;19944;-54
2021/12/17 10:04:38;;;;;;;;;;;23.10;26.80;;;;;;5143111;27;20234;-55
2021/12/17 10:07:31;;;;;;;;;;;23.20;26.80;;;;;;5148739;27;19967;-55
2021/12/17 10:09:57;;;;;;;;;;;23.00;26.90;;;;;;5138590;27;19923;-56
2021/12/17 10:12:24;;;;;;;;;;;23.20;26.80;;;;;;5142709;27;19974;-56
2021/12/17 10:15:00;;;;;;;;;;;23.20;26.80;;;;;;5147692;27;20267;-56
2021/12/17 10:17:25;;;;;;;;;;;23.00;27.00;;;;;;5124500;27;20310;-53
2021/12/17 10:19:53;;;;;;;;;;;23.10;26.80;;;;;;5142614;27;19942;-63
2021/12/17 10:22:19;;;;;;;;;;;23.10;26.80;;;;;;5129569;27;19930;-55
2021/12/17 10:24:45;;;;;;;;;;;23.10;26.80;;;;;;5142691;27;20275;-55
2021/12/17 10:27:18;;;;;;;;;;;23.10;26.70;;;;;;5124533;27;20122;-62
2021/12/17 10:29:44;;;;;;;;;;;23.00;26.90;;;;;;5147914;27;20025;-54
2021/12/17 10:32:15;;;;;;;;;;;23.00;26.90;;;;;;5142143;27;19927;-60
2021/12/17 10:34:49;;;;;;;;;;;23.10;26.80;;;;;;5143393;27;19927;-58
2021/12/17 10:37:30;;;;;;;;;;;23.00;26.90;;;;;;5129599;27;20013;-55
2021/12/17 10:39:55;;;;;;;;;;;23.10;26.70;;;;;;5142980;27;19927;-57
2021/12/17 10:42:28;;;;;;;;;;;22.80;27.10;;;;;;5147653;27;19923;-59
2021/12/17 10:45:04;;;;;;;;;;;22.80;27.00;;;;;;5145835;27;20289;-54
2021/12/17 10:47:33;;;;;;;;;;;23.00;26.90;;;;;;5141810;27;20452;-55
2021/12/17 10:50:02;;;;;;;;;;;23.10;26.70;;;;;;5128918;27;19923;-55
2021/12/17 10:52:39;;;;;;;;;;;23.10;26.70;;;;;;5123651;27;20449;-56
2021/12/17 10:55:06;;;;;;;;;;;23.20;26.70;;;;;;5125758;27;19923;-53
2021/12/17 10:57:32;;;;;;;;;;;23.00;26.90;;;;;;5147585;27;19927;-57
2021/12/17 10:59:59;;;;;;;;;;;23.10;26.90;;;;;;5142406;27;19938;-57
2021/12/17 11:02:25;;;;;;;;;;;23.20;26.80;;;;;;5142300;27;19985;-63
2021/12/17 11:04:51;;;;;;;;;;;23.20;26.80;;;;;;5128243;27;19931;-55
2021/12/17 11:07:18;;;;;;;;;;;23.00;27.10;;;;;;5123424;27;20026;-52
2021/12/17 11:09:47;;;;;;;;;;;23.10;27.00;;;;;;5141819;27;19929;-57
2021/12/17 11:12:29;;;;;;;;;;;22.70;27.50;;;;;;5147794;27;20023;-53
2021/12/17 11:15:07;;;;;;;;;;;22.90;27.20;;;;;;5142119;27;20337;-55
2021/12/17 11:17:33;;;;;;;;;;;23.10;27.10;;;;;;5142149;27;19933;-62
2021/12/17 11:19:58;;;;;;;;;;;23.10;27.10;;;;;;5147327;27;19977;-56
2021/12/17 11:22:26;;;;;;;;;;;23.00;27.20;;;;;;5122917;27;20382;-53
2021/12/17 11:24:52;;;;;;;;;;;23.00;27.20;;;;;;5146665;27;19927;-53
2021/12/17 11:27:17;;;;;;;;;;;23.10;27.10;;;;;;5141704;27;20338;-54
2021/12/17 11:29:43;;;;;;;;;;;23.00;27.30;;;;;;5141564;27;19923;-51
2021/12/17 11:32:09;;;;;;;;;;;23.10;27.10;;;;;;5147586;27;19930;-59
2021/12/17 11:34:35;;;;;;;;;;;23.00;27.40;;;;;;5141476;27;19931;-52
2021/12/17 11:37:02;;;;;;;;;;;23.00;27.30;;;;;;5141568;27;20019;-54
2021/12/17 11:39:31;;;;;;;;;;;23.20;27.10;;;;;;5146950;27;19923;-59
2021/12/17 11:42:16;;;;;;;;;;;23.00;27.30;;;;;;5141108;27;19975;-52
2021/12/17 11:44:51;;;;;;;;;;;23.10;27.20;;;;;;5141900;27;20325;-56
2021/12/17 11:47:16;;;;;;;;;;;22.90;27.40;;;;;;5146256;27;19935;-54
2021/12/17 11:49:48;;;;;;;;;;;23.00;27.40;;;;;;5141369;27;19931;-63
2021/12/17 11:52:14;;;;;;;;;;;23.10;27.30;;;;;;5123298;27;19923;-58
2021/12/17 11:54:40;;;;;;;;;;;23.00;27.40;;;;;;5146795;27;19938;-52
2021/12/17 11:57:12;;;;;;;;;;;23.20;27.20;;;;;;5141496;27;20030;-63
2021/12/17 11:59:39;;;;;;;;;;;23.00;27.30;;;;;;5145409;27;19945;-55
2021/12/17 12:02:19;;;;;;;;;;;23.00;27.40;;;;;;5140707;27;19923;-63
2021/12/17 12:04:46;;;;;;;;;;;23.10;27.30;;;;;;5140696;27;19923;-56
2021/12/17 12:07:11;;;;;;;;;;;22.70;28.00;;;;;;5146580;27;19931;-56
2021/12/17 12:09:59;;;;;;;;;;;23.00;27.60;;;;;;5141148;27;19923;-55
2021/12/17 12:12:34;;;;;;;;;;;23.00;27.50;;;;;;5140837;27;19976;-57
2021/12/17 12:15:27;;;;;;;;;;;23.10;27.40;;;;;;5146421;27;19923;-53
2021/12/17 12:18:17;;;;;;;;;;;23.20;27.30;;;;;;5146586;27;19996;-52
2021/12/17 12:20:51;;;;;;;;;;;23.10;27.40;;;;;;5140080;27;22443;-64
2021/12/17 12:23:32;;;;;;;;;;;22.70;27.90;;;;;;5140267;27;20301;-54
2021/12/17 12:26:01;;;;;;;;;;;22.80;27.80;;;;;;5146436;27;20014;-54
2021/12/17 12:28:45;;;;;;;;;;;23.00;27.50;;;;;;5140631;27;19923;-59
2021/12/17 12:31:11;;;;;;;;;;;23.10;27.50;;;;;;5141327;27;20677;-55
2021/12/17 12:33:57;;;;;;;;;;;22.90;27.70;;;;;;5127808;27;19929;-52
2021/12/17 12:36:41;;;;;;;;;;;23.20;27.60;;;;;;5140355;27;19937;-58
2021/12/17 12:39:13;;;;;;;;;;;23.20;27.60;;;;;;5140525;27;19923;-56
2021/12/17 12:41:48;;;;;;;;;;;22.90;27.90;;;;;;5145609;27;19923;-51
2021/12/17 12:44:14;;;;;;;;;;;23.10;27.60;;;;;;5139429;27;19995;-63
2021/12/17 12:46:47;;;;;;;;;;;23.10;27.70;;;;;;5140952;27;20030;-55
2021/12/17 12:49:42;;;;;;;;;;;22.80;28.20;;;;;;5127433;27;19930;-53
2021/12/17 12:52:15;;;;;;;;;;;23.00;27.90;;;;;;5048886;27;19928;-60
2021/12/17 12:54:41;;;;;;;;;;;23.00;27.80;;;;;;5120599;27;19948;-56
2021/12/17 12:57:07;;;;;;;;;;;23.10;27.90;;;;;;5145831;27;19927;-62
2021/12/17 12:59:32;;;;;;;;;;;23.20;27.80;;;;;;5121957;27;19936;-58
2021/12/17 13:01:58;;;;;;;;;;;22.80;28.20;;;;;;5140185;27;19923;-54
2021/12/17 13:04:25;;;;;;;;;;;23.10;28.00;;;;;;5146166;27;20259;-62
2021/12/17 13:06:51;;;;;;;;;;;23.10;28.00;;;;;;5121844;27;20029;-56
2021/12/17 13:09:27;;;;;;;;;;;23.10;28.00;;;;;;5146181;27;21300;-60
2021/12/17 13:11:52;;;;;;;;;;;22.90;28.20;;;;;;5143142;27;20055;-53
2021/12/17 13:14:23;;;;;;;;;;;22.70;28.70;;;;;;5143616;27;20373;-54
2021/12/17 13:17:06;;;;;;;;;;;23.00;28.20;;;;;;5148966;27;20487;-55
2021/12/17 13:22:42;;;;;;;;;;;23.10;28.20;;;;;;5143982;27;20354;-54
2021/12/17 13:25:02;;;;;;;;;;;23.00;28.30;;;;;;5145191;27;19927;-58
2021/12/17 13:27:28;;;;;;;;;;;23.10;28.30;;;;;;5146692;27;20298;-62
2021/12/17 13:29:55;;;;;;;;;;;22.90;28.80;;;;;;5143772;27;19934;-57
2021/12/17 13:32:21;;;;;;;;;;;22.30;30.00;;;;;;5130302;27;19945;-57
2021/12/17 13:34:51;;;;;;;;;;;22.70;29.60;;;;;;5143250;27;19923;-55
2021/12/17 13:37:19;;;;;;;;;;;22.90;29.40;;;;;;5142754;27;19923;-57
2021/12/17 13:39:46;;;;;;;;;;;22.90;29.10;;;;;;5149049;27;20327;-53
2021/12/17 13:42:15;;;;;;;;;;;23.00;29.00;;;;;;5143659;27;19923;-64
2021/12/17 13:44:57;;;;;;;;;;;22.80;29.20;;;;;;5143353;27;20305;-53
2021/12/17 13:47:24;;;;;;;;;;;22.80;29.10;;;;;;5130380;27;20333;-53
2021/12/17 13:49:53;;;;;;;;;;;23.00;28.80;;;;;;5143110;27;19923;-58
2021/12/17 13:52:23;;;;;;;;;;;23.10;28.70;;;;;;5123861;27;20074;-55
2021/12/17 13:54:49;;;;;;;;;;;22.80;29.00;;;;;;5148452;27;19923;-61
2021/12/17 13:57:16;;;;;;;;;;;22.90;28.80;;;;;;5143253;27;20248;-56
2021/12/17 13:59:42;;;;;;;;;;;22.80;29.00;;;;;;5148915;27;20063;-56
2021/12/17 14:02:12;;;;;;;;;;;23.00;28.80;;;;;;5143099;27;20378;-57
2021/12/17 14:04:39;;;;;;;;;;;23.00;28.70;;;;;;5143223;27;19942;-57
2021/12/17 14:07:05;;;;;;;;;;;23.00;28.80;;;;;;5148356;27;19929;-54
2021/12/17 14:09:31;;;;;;;;;;;23.10;28.60;;;;;;5143130;27;20343;-62
2021/12/17 14:12:06;;;;;;;;;;;22.80;29.00;;;;;;5142812;27;19950;-56
2021/12/17 14:14:33;;;;;;;;;;;22.90;29.00;;;;;;5129428;27;20349;-56
2021/12/17 14:17:00;;;;;;;;;;;23.00;28.90;;;;;;5143511;27;20349;-55
2021/12/17 14:19:39;;;;;;;;;;;23.10;28.70;;;;;;5142960;27;20432;-55
2021/12/17 14:22:27;;;;;;;;;;;23.00;28.80;;;;;;5147903;27;19923;-62
2021/12/17 14:24:53;;;;;;;;;;;23.00;28.90;;;;;;5143248;27;20018;-55
2021/12/17 14:27:18;;;;;;;;;;;22.80;29.20;;;;;;5142674;27;20287;-64
2021/12/17 14:29:44;;;;;;;;;;;23.00;28.90;;;;;;5148038;27;19922;-55
2021/12/17 14:32:17;;;;;;;;;;;22.80;29.40;;;;;;5142297;27;19939;-54
2021/12/17 14:34:42;;;;;;;;;;;23.00;29.00;;;;;;5145494;27;19923;-56
2021/12/17 14:37:08;;;;;;;;;;;22.70;29.60;;;;;;5145922;27;19950;-56
2021/12/17 14:39:36;;;;;;;;;;;23.00;29.20;;;;;;5124117;27;20007;-61
2021/12/17 14:42:05;;;;;;;;;;;23.10;29.00;;;;;;5129881;27;19994;-53
2021/12/17 14:44:48;;;;;;;;;;;23.00;29.20;;;;;;5142145;27;19933;-64
2021/12/17 14:47:27;;;;;;;;;;;23.00;29.10;;;;;;5142391;27;19923;-54
2021/12/17 15:05:47;;;;;;;;;;;23.20;29.20;;;;;;5142117;27;20022;-58
2021/12/17 15:08:13;;;;;;;;;;;23.00;29.40;;;;;;5127765;27;19995;-58
2021/12/17 15:10:39;;;;;;;;;;;23.00;29.30;;;;;;5121778;27;20029;-59
2021/12/17 15:13:06;;;;;;;;;;;23.00;29.30;;;;;;5147847;27;20302;-56
2021/12/17 15:15:35;;;;;;;;;;;23.00;29.40;;;;;;5123634;27;20017;-54
2021/12/17 15:18:01;;;;;;;;;;;23.00;29.30;;;;;;5141973;27;19967;-54
2021/12/17 15:20:28;;;;;;;;;;;23.00;29.40;;;;;;5147031;27;20008;-55
2021/12/17 15:22:54;;;;;;;;;;;23.00;29.40;;;;;;5141704;27;20078;-55
2021/12/17 15:25:19;;;;;;;;;;;23.10;29.30;;;;;;5141764;27;20248;-61
2021/12/17 15:27:45;;;;;;;;;;;23.00;29.20;;;;;;5128383;27;20328;-57
2021/12/17 15:30:13;;;;;;;;;;;23.10;29.20;;;;;;5141722;27;20413;-55
2021/12/17 15:32:39;;;;;;;;;;;23.20;29.10;;;;;;5147716;27;19923;-59
2021/12/17 15:35:04;;;;;;;;;;;22.90;29.40;;;;;;5140515;27;19985;-52
2021/12/17 15:37:30;;;;;;;;;;;23.00;29.20;;;;;;5142147;27;19970;-59
2021/12/17 15:39:56;;;;;;;;;;;22.90;29.30;;;;;;5126897;27;19923;-52
2021/12/17 15:42:22;;;;;;;;;;;22.90;29.20;;;;;;5141184;27;20393;-54
2021/12/17 15:44:48;;;;;;;;;;;23.10;29.10;;;;;;5141770;27;20605;-61
2021/12/17 15:47:13;;;;;;;;;;;22.70;29.50;;;;;;5146363;27;20385;-56
2021/12/17 15:49:39;;;;;;;;;;;22.70;29.60;;;;;;5141962;27;19930;-53
2021/12/17 15:52:05;;;;;;;;;;;22.90;29.10;;;;;;5127016;27;20352;-63
2021/12/17 15:54:31;;;;;;;;;;;22.90;29.10;;;;;;5125068;27;19927;-54
2021/12/17 15:56:57;;;;;;;;;;;22.80;29.20;;;;;;5141346;27;20335;-53
2021/12/17 15:59:23;;;;;;;;;;;23.00;29.00;;;;;;5146437;27;20259;-60
2021/12/17 16:01:49;;;;;;;;;;;23.10;28.80;;;;;;5141081;27;19965;-54
2021/12/17 16:04:15;;;;;;;;;;;23.00;28.90;;;;;;5140790;27;20297;-52
2021/12/17 16:06:41;;;;;;;;;;;23.10;28.80;;;;;;5146393;27;19924;-54
2021/12/17 16:09:16;;;;;;;;;;;23.10;28.70;;;;;;5141476;27;20391;-62
2021/12/17 16:11:59;;;;;;;;;;;22.90;28.90;;;;;;5141129;27;20515;-55
2021/12/17 16:22:23;;;;;;;;;;;22.80;29.00;;;;;;5145998;27;20021;-55
2021/12/17 16:24:49;;;;;;;;;;;23.00;28.60;;;;;;5140483;27;20431;-58
2021/12/17 16:27:14;;;;;;;;;;;23.10;28.50;;;;;;5141016;27;20313;-55
2021/12/17 16:29:40;;;;;;;;;;;23.10;28.50;;;;;;5146216;27;19923;-63
2021/12/17 16:32:06;;;;;;;;;;;23.10;28.50;;;;;;5141003;27;19931;-56
2021/12/17 16:34:32;;;;;;;;;;;22.80;28.80;;;;;;5146257;27;19930;-51
2021/12/17 16:36:58;;;;;;;;;;;23.00;28.60;;;;;;5140637;27;19934;-52
2021/12/17 16:39:23;;;;;;;;;;;23.00;28.40;;;;;;5140023;27;19976;-52
2021/12/17 16:41:49;;;;;;;;;;;23.20;28.20;;;;;;5145317;27;19930;-56
2021/12/17 16:44:20;;;;;;;;;;;23.10;28.20;;;;;;5140768;27;20304;-53
2021/12/17 16:49:15;;;;;;;;;;;23.00;28.30;;;;;;5150018;27;19927;-53
2021/12/17 16:51:41;;;;;;;;;;;22.50;29.00;;;;;;5144581;27;19923;-55
2021/12/17 16:54:07;;;;;;;;;;;22.80;28.60;;;;;;5145656;27;19958;-56
2021/12/17 16:56:32;;;;;;;;;;;22.90;28.30;;;;;;5148451;27;19979;-57
2021/12/17 16:58:58;;;;;;;;;;;23.00;28.40;;;;;;5143831;27;19999;-53
2021/12/17 17:01:26;;;;;;;;;;;23.00;28.30;;;;;;5130117;27;19938;-49
2021/12/17 17:03:52;;;;;;;;;;;23.10;28.20;;;;;;5144129;27;19923;-53
2021/12/17 17:06:18;;;;;;;;;;;23.10;28.20;;;;;;5144030;27;20022;-54
2021/12/17 17:08:44;;;;;;;;;;;23.00;28.30;;;;;;5149699;27;20004;-52
2021/12/17 17:11:13;;;;;;;;;;;23.10;28.20;;;;;;5143942;27;20382;-59
2021/12/17 17:13:38;;;;;;;;;;;23.20;27.90;;;;;;5143924;27;20314;-57
2021/12/17 17:16:05;;;;;;;;;;;22.90;28.20;;;;;;5148886;27;19987;-53
2021/12/17 17:18:31;;;;;;;;;;;23.00;28.10;;;;;;5143507;27;19923;-58
2021/12/17 17:20:58;;;;;;;;;;;23.00;28.20;;;;;;5148847;27;19923;-54
2021/12/17 17:23:24;;;;;;;;;;;23.00;28.10;;;;;;5144153;27;19923;-52
2021/12/17 17:25:50;;;;;;;;;;;23.10;28.00;;;;;;5143917;27;19945;-56
2021/12/17 17:28:17;;;;;;;;;;;22.90;28.20;;;;;;5149166;27;19934;-54
2021/12/17 17:30:43;;;;;;;;;;;23.10;28.00;;;;;;5143423;27;19923;-54
2021/12/17 17:33:08;;;;;;;;;;;23.10;27.90;;;;;;5143212;27;20520;-53
2021/12/17 17:35:35;;;;;;;;;;;23.20;27.80;;;;;;5148827;27;19934;-50
2021/12/17 17:38:02;;;;;;;;;;;23.00;27.90;;;;;;5143112;27;19995;-53
2021/12/17 17:40:28;;;;;;;;;;;23.00;27.80;;;;;;5147452;27;19937;-58